createdAt,value
2019-01-29T14:42:09.098Z,21.57
2019-01-29T14:43:29.588Z,21.23
2019-01-29T14:44:36.236Z,22.22
2019-01-29T14:45:42.112Z,21.42
2019-01-29T14:46:47.943Z,21.15
2019-01-29T14:47:54.637Z,20.80
2019-01-29T14:49:00.858Z,19.25
2019-01-29T14:50:11.710Z,23.47
2019-01-29T14:51:17.538Z,21.33
2019-01-29T14:52:23.192Z,23.57
2019-01-29T14:53:28.846Z,21.93
2019-01-29T14:54:34.577Z,22.07
2019-01-29T14:55:40.325Z,26.70
2019-01-29T14:56:46.056Z,22.98
2019-01-29T14:57:51.810Z,33.45
2019-01-29T14:58:57.532Z,24.45
2019-01-29T15:00:46.491Z,18.33
2019-01-29T15:01:52.218Z,20.30
2019-01-29T15:02:57.917Z,23.92
2019-01-29T15:04:03.717Z,24.52
2019-01-29T15:05:09.843Z,20.82
2019-01-29T15:06:15.617Z,22.15
2019-01-29T15:07:29.881Z,17.65
2019-01-29T15:08:30.257Z,20.95
2019-01-29T15:09:36.797Z,18.52
2019-01-29T15:10:42.990Z,17.62
2019-01-29T15:11:48.992Z,18.02
2019-01-29T15:12:56.810Z,18.60
2019-01-29T15:14:03.650Z,18.07
2019-01-29T15:15:14.631Z,18.52
2019-01-29T15:16:22.877Z,22.52
2019-01-29T15:17:30.157Z,18.37
2019-01-29T15:18:37.697Z,14.05
2019-01-29T15:19:45.970Z,16.60
2019-01-29T15:20:51.530Z,17.55
2019-01-29T15:21:57.774Z,33.50
2019-01-29T15:23:04.519Z,72.00
2019-01-29T15:24:10.278Z,123.28
2019-01-29T15:25:17.870Z,104.05
2019-01-29T15:26:24.428Z,120.50
2019-01-29T15:27:31.386Z,191.10
2019-01-29T15:28:37.354Z,104.87
2019-01-29T15:29:43.097Z,45.38
2019-01-29T15:30:48.718Z,31.25
2019-01-29T15:31:54.656Z,31.07
2019-01-29T15:33:00.396Z,36.85
2019-01-29T15:34:05.960Z,21.48
2019-01-29T15:35:11.706Z,29.77
2019-01-29T15:36:17.454Z,36.28
2019-01-29T15:37:23.165Z,43.42
2019-01-29T15:38:30.150Z,29.50
2019-01-29T15:39:36.311Z,29.75
2019-01-29T15:40:42.157Z,31.57
2019-01-29T15:41:48.280Z,23.83
2019-01-29T15:42:56.045Z,19.98
2019-01-29T15:44:02.130Z,16.62
2019-01-29T15:45:24.090Z,16.50
2019-01-29T15:46:29.958Z,19.98
2019-01-29T15:47:36.529Z,20.40
2019-01-29T15:48:42.297Z,24.92
2019-01-29T15:49:48.931Z,27.60
2019-01-29T15:50:55.637Z,23.80
2019-01-29T15:52:03.837Z,19.70
2019-01-29T15:53:09.897Z,31.42
2019-01-29T15:54:16.118Z,22.30
2019-01-29T15:55:22.342Z,18.82
2019-01-29T15:56:28.217Z,18.25
2019-01-29T15:57:33.964Z,16.15
2019-01-29T15:58:39.818Z,18.02
2019-01-29T15:59:46.797Z,27.77
2019-01-29T16:00:59.114Z,18.52
2019-01-29T16:02:05.358Z,14.90
2019-01-29T16:03:11.069Z,67.82
2019-01-29T16:04:19.185Z,37.38
2019-01-29T16:05:28.558Z,39.30
2019-01-29T16:06:34.576Z,55.45
2019-01-29T16:07:40.690Z,56.30
2019-01-29T16:08:47.480Z,34.25
2019-01-29T16:09:53.397Z,37.00
2019-01-29T16:11:00.138Z,50.20
2019-01-29T16:12:07.236Z,38.33
2019-01-29T16:13:13.689Z,43.40
2019-01-29T16:14:21.018Z,40.60
2019-01-29T16:15:28.871Z,32.23
2019-01-29T16:16:34.818Z,29.23
2019-01-29T16:17:41.910Z,51.77
2019-01-29T16:18:48.850Z,75.57
2019-01-29T16:19:55.090Z,79.80
2019-01-29T16:21:01.601Z,68.37
2019-01-29T16:22:08.510Z,139.12
2019-01-29T16:23:14.671Z,123.18
2019-01-29T16:24:21.217Z,62.33
2019-01-29T16:25:31.729Z,29.55
2019-01-29T16:26:37.711Z,20.15
2019-01-29T16:27:43.478Z,23.87
2019-01-29T16:28:49.390Z,18.92
2019-01-29T16:29:55.248Z,27.77
2019-01-29T16:31:01.550Z,20.85
2019-01-29T16:32:07.950Z,18.60
2019-01-29T16:33:14.278Z,17.15
2019-01-29T16:34:20.317Z,17.60
2019-01-29T16:35:32.950Z,17.65
2019-01-29T16:36:39.330Z,16.95
2019-01-29T16:37:45.396Z,19.77
2019-01-29T16:38:51.437Z,40.92
2019-01-29T16:39:57.739Z,34.03
2019-01-29T16:41:04.596Z,29.32
2019-01-29T16:42:11.958Z,63.85
2019-01-29T16:43:18.230Z,65.65
2019-01-29T16:44:24.560Z,39.35
2019-01-29T16:45:34.350Z,60.08
2019-01-29T16:46:40.494Z,92.67
2019-01-29T16:47:47.210Z,78.47
2019-01-29T16:48:54.518Z,40.60
2019-01-29T16:50:00.716Z,98.05
2019-01-29T16:51:08.390Z,70.92
2019-01-29T16:52:15.484Z,38.38
2019-01-29T16:53:26.049Z,25.32
2019-01-29T16:54:33.037Z,21.77
2019-01-29T16:55:39.516Z,22.10
2019-01-29T16:56:45.581Z,20.43
2019-01-29T16:57:51.344Z,20.15
2019-01-29T16:58:58.424Z,19.35
2019-01-29T17:00:05.477Z,20.50
2019-01-29T17:01:11.659Z,19.25
2019-01-29T17:02:17.752Z,65.60
2019-01-29T17:03:23.631Z,28.05
2019-01-29T17:04:30.230Z,23.55
2019-01-29T17:05:36.565Z,21.85
2019-01-29T17:06:42.791Z,20.62
2019-01-29T17:07:48.959Z,17.90
2019-01-29T17:08:56.096Z,29.40
2019-01-29T17:10:17.244Z,23.50
2019-01-29T17:11:50.291Z,20.12
2019-01-29T17:13:08.266Z,22.58
2019-01-29T17:14:30.639Z,18.35
2019-01-29T17:15:39.677Z,17.87
2019-01-29T17:16:45.751Z,16.15
2019-01-29T17:17:52.058Z,16.65
2019-01-29T17:18:58.698Z,15.80
2019-01-29T17:20:10.358Z,19.82
2019-01-29T17:21:17.537Z,17.30
2019-01-29T17:22:23.391Z,17.07
2019-01-29T17:23:30.279Z,17.87
2019-01-29T17:24:37.610Z,19.98
2019-01-29T17:25:43.637Z,17.55
2019-01-29T17:26:50.918Z,18.07
2019-01-29T17:27:56.925Z,20.32
2019-01-29T17:29:02.697Z,20.60
2019-01-29T17:30:21.957Z,20.37
2019-01-29T17:31:28.098Z,22.17
2019-01-29T17:32:34.556Z,20.85
2019-01-29T17:33:50.138Z,20.65
2019-01-29T17:34:59.378Z,21.05
2019-01-29T17:36:05.518Z,26.95
2019-01-29T17:37:11.750Z,17.23
2019-01-29T17:38:18.735Z,18.90
2019-01-29T17:39:24.758Z,23.60
2019-01-29T17:40:31.877Z,20.70
2019-01-29T17:41:39.300Z,16.67
2019-01-29T17:42:45.419Z,17.02
2019-01-29T17:43:52.186Z,16.55
2019-01-29T17:44:58.900Z,16.65
2019-01-29T17:46:04.818Z,14.73
2019-01-29T17:47:11.225Z,15.08
2019-01-29T17:48:17.401Z,17.85
2019-01-29T17:49:30.799Z,17.67
2019-01-29T17:50:41.636Z,17.20
2019-01-29T17:51:47.756Z,17.23
2019-01-29T17:52:54.200Z,17.67
2019-01-29T17:54:00.910Z,16.30
2019-01-29T17:55:11.229Z,20.68
2019-01-29T17:56:18.298Z,21.37
2019-01-29T17:57:24.257Z,17.52
2019-01-29T17:58:30.098Z,16.97
2019-01-29T17:59:37.381Z,19.70
2019-01-29T18:00:47.317Z,14.90
2019-01-29T18:01:53.217Z,13.83
2019-01-29T18:02:59.350Z,14.50
2019-01-29T18:04:05.403Z,17.10
2019-01-29T18:05:11.290Z,17.65
2019-01-29T18:06:17.295Z,19.67
2019-01-29T18:07:23.230Z,16.95
2019-01-29T18:08:30.276Z,18.75
2019-01-29T18:09:37.836Z,17.10
2019-01-29T18:10:46.279Z,21.37
2019-01-29T18:11:53.090Z,20.23
2019-01-29T18:13:00.059Z,22.95
2019-01-29T18:14:07.658Z,17.02
2019-01-29T18:15:23.218Z,17.67
2019-01-29T18:16:31.863Z,17.40
2019-01-29T18:17:39.258Z,17.37
2019-01-29T18:18:48.785Z,19.02
2019-01-29T18:19:57.640Z,19.35
2019-01-29T18:21:04.639Z,19.20
2019-01-29T18:22:12.238Z,21.77
2019-01-29T18:23:18.977Z,21.62
2019-01-29T18:24:25.177Z,18.77
2019-01-29T18:25:31.841Z,17.42
2019-01-29T18:26:38.711Z,19.80
2019-01-29T18:27:44.998Z,17.98
2019-01-29T18:28:50.819Z,22.13
2019-01-29T18:29:57.777Z,21.07
2019-01-29T18:31:03.605Z,19.37
2019-01-29T18:32:09.658Z,23.00
2019-01-29T18:33:15.818Z,16.42
2019-01-29T18:34:22.838Z,19.37
2019-01-29T18:35:28.737Z,19.92
2019-01-29T18:36:34.677Z,20.97
2019-01-29T18:37:40.739Z,25.57
2019-01-29T18:38:47.450Z,20.17
2019-01-29T18:39:55.377Z,19.45
2019-01-29T18:41:02.840Z,17.77
2019-01-29T18:42:09.257Z,19.35
2019-01-29T18:43:16.237Z,17.87
2019-01-29T18:44:22.966Z,19.60
2019-01-29T18:45:28.989Z,24.02
2019-01-29T18:46:37.596Z,20.50
2019-01-29T18:47:43.897Z,18.98
2019-01-29T18:48:51.458Z,16.10
2019-01-29T18:49:58.357Z,17.57
2019-01-29T18:51:05.957Z,21.62
2019-01-29T18:52:12.372Z,20.82
2019-01-29T18:53:19.239Z,17.40
2019-01-29T18:54:27.397Z,17.62
2019-01-29T18:55:34.460Z,21.70
2019-01-29T18:56:42.937Z,20.40
2019-01-29T18:57:54.317Z,18.37
2019-01-29T18:59:03.192Z,17.85
2019-01-29T19:00:26.719Z,18.65
2019-01-29T19:01:32.770Z,20.43
2019-01-29T19:02:38.828Z,18.82
2019-01-29T19:03:45.298Z,19.20
2019-01-29T19:04:51.458Z,19.27
2019-01-29T19:05:57.778Z,19.25
2019-01-29T19:07:03.736Z,17.67
2019-01-29T19:08:10.659Z,18.65
2019-01-29T19:09:37.138Z,16.85
2019-01-29T19:12:29.138Z,20.27
2019-01-29T19:13:41.208Z,19.92
2019-01-29T19:14:58.855Z,25.35
2019-01-29T19:16:19.318Z,20.15
2019-01-29T19:17:37.594Z,24.55
2019-01-29T19:19:04.621Z,20.88
2019-01-29T19:20:29.212Z,23.50
2019-01-29T19:21:49.085Z,21.05
2019-01-29T19:23:19.693Z,27.50
2019-01-29T19:24:38.413Z,26.70
2019-01-29T19:25:58.317Z,26.55
2019-01-29T19:27:19.818Z,23.67
2019-01-29T19:28:41.276Z,24.15
2019-01-29T19:30:11.056Z,24.02
2019-01-29T19:31:45.964Z,28.70
2019-01-29T19:33:11.937Z,22.87
2019-01-29T19:34:35.239Z,23.50
2019-01-29T19:35:58.268Z,26.65
2019-01-29T19:37:28.631Z,25.72
2019-01-29T19:38:47.637Z,24.40
2019-01-29T19:40:21.026Z,26.62
2019-01-29T19:41:30.198Z,23.73
2019-01-29T19:42:41.582Z,24.77
2019-01-29T19:43:52.866Z,23.77
2019-01-29T19:45:06.114Z,22.90
2019-01-29T19:46:22.195Z,21.87
2019-01-29T19:47:36.358Z,22.48
2019-01-29T19:48:51.346Z,21.77
2019-01-29T19:50:05.722Z,24.92
2019-01-29T19:51:22.271Z,24.55
2019-01-29T19:52:35.515Z,20.75
2019-01-29T19:53:50.167Z,22.70
2019-01-29T19:55:05.341Z,22.15
2019-01-29T19:56:22.060Z,22.35
2019-01-29T19:57:40.638Z,19.82
2019-01-29T19:58:56.078Z,21.62
2019-01-29T20:00:32.706Z,25.50
2019-01-29T20:01:51.073Z,22.07
2019-01-29T20:03:12.437Z,20.12
2019-01-29T20:04:29.354Z,23.20
2019-01-29T20:05:47.457Z,20.02
2019-01-29T20:07:06.376Z,17.87
2019-01-29T20:08:29.954Z,20.52
2019-01-29T20:09:40.872Z,19.00
2019-01-29T20:10:56.880Z,23.52
2019-01-29T20:12:09.655Z,20.27
2019-01-29T20:13:20.647Z,19.30
2019-01-29T20:14:33.618Z,22.62
2019-01-29T20:15:46.246Z,19.30
2019-01-29T20:16:58.642Z,19.27
2019-01-29T20:18:14.798Z,22.48
2019-01-29T20:19:28.352Z,19.77
2019-01-29T20:20:44.565Z,21.95
2019-01-29T20:21:57.045Z,22.67
2019-01-29T20:23:08.566Z,21.97
2019-01-29T20:24:17.263Z,22.98
2019-01-29T20:25:24.842Z,21.37
2019-01-29T20:26:32.569Z,19.20
2019-01-29T20:27:41.878Z,21.80
2019-01-29T20:28:53.300Z,20.37
2019-01-29T20:30:05.538Z,19.07
2019-01-29T20:31:23.967Z,18.23
2019-01-29T20:32:39.100Z,23.73
2019-01-29T20:33:50.521Z,20.48
2019-01-29T20:35:07.146Z,27.82
2019-01-29T20:36:19.368Z,26.80
2019-01-29T20:37:35.601Z,28.90
2019-01-29T20:38:49.674Z,30.65
2019-01-29T20:39:56.017Z,26.12
2019-01-29T20:41:03.640Z,21.42
2019-01-29T20:42:09.682Z,21.70
2019-01-29T20:43:15.760Z,21.77
2019-01-29T20:44:24.225Z,24.92
2019-01-29T20:45:31.727Z,23.15
2019-01-29T20:46:40.980Z,21.73
2019-01-29T20:48:00.672Z,21.85
2019-01-29T20:49:15.878Z,21.75
2019-01-29T20:50:32.093Z,22.87
2019-01-29T20:51:47.616Z,24.15
2019-01-29T20:53:02.338Z,22.95
2019-01-29T20:54:20.279Z,26.33
2019-01-29T20:55:35.161Z,30.57
2019-01-29T20:56:50.956Z,29.77
2019-01-29T20:58:08.059Z,27.10
2019-01-29T20:59:22.238Z,28.75
2019-01-29T21:00:49.377Z,27.82
2019-01-29T21:02:14.245Z,26.40
2019-01-29T21:03:31.357Z,29.12
2019-01-29T21:04:51.787Z,26.45
2019-01-29T21:06:10.150Z,27.95
2019-01-29T21:07:25.031Z,25.52
2019-01-29T21:08:43.305Z,25.50
2019-01-29T21:17:28.397Z,41.42
2019-01-29T21:18:50.519Z,37.95
2019-01-29T21:20:22.833Z,35.20
2019-01-29T21:21:40.558Z,35.75
2019-01-29T21:22:49.440Z,37.30
2019-01-29T21:23:59.912Z,35.13
2019-01-29T21:25:11.817Z,35.48
2019-01-29T21:26:29.097Z,36.15
2019-01-29T21:27:43.770Z,36.35
2019-01-29T21:29:02.718Z,35.05
2019-01-29T21:30:15.106Z,41.80
2019-01-29T21:31:28.797Z,34.90
2019-01-29T21:32:40.758Z,37.45
2019-01-29T21:33:50.313Z,34.13
2019-01-29T21:35:33.164Z,37.63
2019-01-29T21:36:45.538Z,36.90
2019-01-29T21:38:00.997Z,34.30
2019-01-29T21:39:23.666Z,36.88
2019-01-29T21:40:43.356Z,39.70
2019-01-29T21:42:02.055Z,37.15
2019-01-29T21:43:27.247Z,36.17
2019-01-29T21:44:46.998Z,37.93
2019-01-29T21:46:17.637Z,39.33
2019-01-29T21:48:09.979Z,42.88
2019-01-29T21:49:47.063Z,47.38
2019-01-29T21:51:11.857Z,50.92
2019-01-29T21:56:09.067Z,41.25
2019-01-29T21:57:19.870Z,38.73
2019-01-29T21:58:28.959Z,39.35
2019-01-29T21:59:38.439Z,35.43
2019-01-29T22:00:47.757Z,38.92
2019-01-29T22:01:58.905Z,37.30
2019-01-29T22:03:12.390Z,34.73
2019-01-29T22:04:25.457Z,35.30
2019-01-29T22:05:38.097Z,33.53
2019-01-29T22:06:47.437Z,37.53
2019-01-29T22:07:57.649Z,37.73
2019-01-29T22:09:11.122Z,37.53
2019-01-29T22:10:20.477Z,38.38
2019-01-29T22:11:29.167Z,39.53
2019-01-29T22:12:49.438Z,41.30
2019-01-29T22:14:05.946Z,45.05
2019-01-29T22:15:32.530Z,42.03
2019-01-29T22:16:41.516Z,41.40
2019-01-29T22:17:55.778Z,44.67
2019-01-29T22:19:01.946Z,39.25
2019-01-29T22:20:16.343Z,48.80
2019-01-29T22:21:25.376Z,43.85
2019-01-29T22:22:37.486Z,46.20
2019-01-29T22:23:39.144Z,38.00
2019-01-29T22:24:44.970Z,31.97
2019-01-29T22:25:50.684Z,38.38
2019-01-29T22:26:56.351Z,38.23
2019-01-29T22:28:02.721Z,38.98
2019-01-29T22:29:08.322Z,37.73
2019-01-29T22:30:30.439Z,36.65
2019-01-29T22:31:36.190Z,40.73
2019-01-29T22:32:42.030Z,36.60
2019-01-29T22:33:52.597Z,35.95
2019-01-29T22:34:58.516Z,36.45
2019-01-29T22:36:04.470Z,38.02
2019-01-29T22:37:11.239Z,33.42
2019-01-29T22:38:17.077Z,38.95
2019-01-29T22:39:23.810Z,37.03
2019-01-29T22:40:32.308Z,41.25
2019-01-29T22:41:39.197Z,38.40
2019-01-29T22:42:45.246Z,43.45
2019-01-29T22:43:51.918Z,39.08
2019-01-29T22:44:58.337Z,36.35
2019-01-29T22:46:05.887Z,40.23
2019-01-29T22:47:11.407Z,37.67
2019-01-29T22:48:16.939Z,41.80
2019-01-29T22:49:23.899Z,40.73
2019-01-29T22:50:36.734Z,41.95
2019-01-29T22:51:42.339Z,43.38
2019-01-29T22:52:48.808Z,47.53
2019-01-29T22:53:54.809Z,43.63
2019-01-29T22:55:00.687Z,40.33
2019-01-29T22:56:07.720Z,41.10
2019-01-29T22:57:15.610Z,42.45
2019-01-29T22:58:21.043Z,40.98
2019-01-29T22:59:33.377Z,45.80
2019-01-29T23:00:56.814Z,44.48
2019-01-29T23:02:02.367Z,48.78
2019-01-29T23:03:07.800Z,46.68
2019-01-29T23:04:13.169Z,46.98
2019-01-29T23:05:18.381Z,46.45
2019-01-29T23:06:50.194Z,47.48
2019-01-29T23:07:55.746Z,52.13
2019-01-29T23:09:01.646Z,45.12
2019-01-29T23:10:15.619Z,43.58
2019-01-29T23:11:22.180Z,41.50
2019-01-29T23:12:28.199Z,39.75
2019-01-29T23:13:36.557Z,42.48
2019-01-29T23:14:43.296Z,43.63
2019-01-29T23:15:49.477Z,39.48
2019-01-29T23:16:56.335Z,42.67
2019-01-29T23:18:03.456Z,43.00
2019-01-29T23:19:10.577Z,45.05
2019-01-29T23:20:18.327Z,45.12
2019-01-29T23:21:24.647Z,39.00
2019-01-29T23:22:31.051Z,43.50
2019-01-29T23:23:38.248Z,43.90
2019-01-29T23:24:44.767Z,42.43
2019-01-29T23:25:51.806Z,43.60
2019-01-29T23:26:58.818Z,43.50
2019-01-29T23:28:05.052Z,44.23
2019-01-29T23:29:10.416Z,46.88
2019-01-29T23:30:19.512Z,44.48
2019-01-29T23:31:25.814Z,43.92
2019-01-29T23:32:31.222Z,48.10
2019-01-29T23:33:36.453Z,47.38
2019-01-29T23:34:41.902Z,43.75
2019-01-29T23:35:47.277Z,42.43
2019-01-29T23:36:52.589Z,46.18
2019-01-29T23:37:57.987Z,44.73
2019-01-29T23:39:05.327Z,43.45
2019-01-29T23:40:19.566Z,44.63
2019-01-29T23:41:25.485Z,41.77
2019-01-29T23:42:31.222Z,44.73
2019-01-29T23:43:37.657Z,43.70
2019-01-29T23:44:43.388Z,38.95
2019-01-29T23:45:50.147Z,38.40
2019-01-29T23:46:56.729Z,37.85
2019-01-29T23:48:02.125Z,41.83
2019-01-29T23:49:08.069Z,41.58
2019-01-29T23:50:18.977Z,44.25
2019-01-29T23:51:24.558Z,40.80
2019-01-29T23:52:30.617Z,43.83
2019-01-29T23:53:37.776Z,43.80
2019-01-29T23:54:43.300Z,48.15
2019-01-29T23:55:49.813Z,46.25
2019-01-29T23:56:57.277Z,47.40
2019-01-29T23:58:03.278Z,44.90
2019-01-29T23:59:08.558Z,45.38
